createdAt,value
2022-11-07T00:01:36.077Z,11.62
2022-11-07T00:04:03.161Z,11.52
2022-11-07T00:06:30.062Z,11.41
2022-11-07T00:08:58.695Z,11.34
2022-11-07T00:11:25.158Z,11.25
2022-11-07T00:13:51.736Z,11.26
2022-11-07T00:16:18.262Z,11.31
2022-11-07T00:18:45.060Z,11.25
2022-11-07T00:21:11.641Z,11.28
2022-11-07T00:23:41.204Z,11.19
2022-11-07T00:26:14.657Z,11.15
2022-11-07T00:28:43.000Z,11.09
2022-11-07T00:31:12.689Z,11.05
2022-11-07T00:33:39.256Z,11.03
2022-11-07T00:36:07.324Z,10.96
2022-11-07T00:38:33.849Z,10.98
2022-11-07T00:41:03.032Z,10.90
2022-11-07T00:43:30.580Z,10.95
2022-11-07T00:45:57.836Z,10.96
2022-11-07T00:48:24.486Z,10.91
2022-11-07T00:50:51.551Z,10.90
2022-11-07T00:53:18.313Z,10.83
2022-11-07T00:55:45.105Z,10.81
2022-11-07T00:58:14.135Z,10.74
2022-11-07T01:00:41.944Z,10.71
2022-11-07T01:03:35.352Z,10.86
2022-11-07T01:06:03.758Z,10.81
2022-11-07T01:08:31.074Z,10.81
2022-11-07T01:11:01.067Z,10.85
2022-11-07T01:13:27.541Z,10.87
2022-11-07T01:15:54.206Z,10.82
2022-11-07T01:18:20.997Z,10.81
2022-11-07T01:20:49.236Z,10.77
2022-11-07T01:23:17.210Z,10.70
2022-11-07T01:25:44.218Z,10.67
2022-11-07T01:28:11.162Z,10.63
2022-11-07T01:30:38.844Z,10.65
2022-11-07T01:33:05.906Z,10.48
2022-11-07T01:35:33.673Z,10.37
2022-11-07T01:38:00.282Z,10.28
2022-11-07T01:40:27.526Z,10.39
2022-11-07T01:42:54.651Z,10.32
2022-11-07T01:45:25.778Z,10.22
2022-11-07T01:47:55.253Z,10.17
2022-11-07T01:50:24.664Z,10.18
2022-11-07T01:52:53.191Z,10.20
2022-11-07T01:55:27.998Z,10.19
2022-11-07T01:58:08.728Z,10.29
2022-11-07T02:00:36.663Z,10.31
2022-11-07T02:03:09.857Z,10.24
2022-11-07T02:05:52.694Z,10.14
2022-11-07T02:08:20.726Z,10.18
2022-11-07T02:10:48.632Z,10.13
2022-11-07T02:13:23.794Z,10.18
2022-11-07T02:15:50.557Z,9.97
2022-11-07T02:18:17.142Z,9.93
2022-11-07T02:20:45.529Z,9.89
2022-11-07T02:23:24.759Z,9.82
2022-11-07T02:25:51.472Z,9.77
2022-11-07T02:28:20.781Z,9.87
2022-11-07T02:30:47.316Z,9.88
2022-11-07T02:33:22.627Z,9.82
2022-11-07T02:35:51.881Z,9.76
2022-11-07T02:38:48.905Z,9.72
2022-11-07T02:41:25.237Z,9.70
2022-11-07T02:43:54.868Z,9.68
2022-11-07T02:46:22.575Z,9.78
2022-11-07T02:48:51.934Z,9.75
2022-11-07T02:51:18.569Z,9.64
2022-11-07T02:53:45.196Z,9.58
2022-11-07T02:56:12.235Z,9.54
2022-11-07T02:58:38.868Z,9.50
2022-11-07T03:01:09.325Z,9.48
2022-11-07T03:03:39.496Z,9.60
2022-11-07T03:06:08.105Z,9.43
2022-11-07T03:08:34.858Z,9.45
2022-11-07T03:11:02.239Z,9.35
2022-11-07T03:13:29.006Z,9.40
2022-11-07T03:15:56.084Z,9.41
2022-11-07T03:18:23.200Z,9.41
2022-11-07T03:20:49.690Z,9.35
2022-11-07T03:23:16.727Z,9.29
2022-11-07T03:25:43.548Z,9.30
2022-11-07T03:28:10.100Z,9.27
2022-11-07T03:30:36.566Z,9.24
2022-11-07T03:33:03.101Z,9.22
2022-11-07T03:35:29.666Z,9.24
2022-11-07T03:37:56.297Z,9.30
2022-11-07T03:40:22.917Z,9.18
2022-11-07T03:42:49.567Z,9.15
2022-11-07T03:45:17.383Z,9.18
2022-11-07T03:47:46.327Z,9.10
2022-11-07T03:50:19.254Z,9.04
2022-11-07T03:52:46.598Z,9.07
2022-11-07T03:55:16.216Z,9.09
2022-11-07T03:57:43.002Z,9.07
2022-11-07T04:00:10.644Z,9.02
2022-11-07T04:02:37.424Z,8.95
2022-11-07T04:05:04.879Z,8.91
2022-11-07T04:07:31.397Z,9.11
2022-11-07T04:09:57.869Z,9.13
2022-11-07T04:12:42.714Z,9.14
2022-11-07T04:15:29.437Z,9.12
2022-11-07T04:17:56.232Z,9.02
2022-11-07T04:20:23.034Z,8.89
2022-11-07T04:22:49.760Z,8.89
2022-11-07T04:25:16.243Z,8.90
2022-11-07T04:27:42.903Z,8.86
2022-11-07T04:30:26.769Z,8.80
2022-11-07T04:32:55.902Z,8.76
2022-11-07T04:35:25.254Z,8.93
2022-11-07T04:37:52.544Z,8.95
2022-11-07T04:40:20.369Z,8.71
2022-11-07T04:42:48.442Z,8.70
2022-11-07T04:45:15.524Z,8.67
2022-11-07T04:47:42.073Z,8.62
2022-11-07T04:50:11.601Z,8.60
2022-11-07T04:52:38.488Z,8.73
2022-11-07T04:55:06.330Z,8.76
2022-11-07T04:57:32.945Z,8.75
2022-11-07T04:59:59.473Z,8.69
2022-11-07T05:02:26.237Z,8.66
2022-11-07T05:04:53.031Z,8.67
2022-11-07T05:07:21.047Z,8.65
2022-11-07T05:09:47.958Z,8.80
2022-11-07T05:12:14.429Z,8.53
2022-11-07T05:14:40.960Z,8.50
2022-11-07T05:17:07.602Z,8.60
2022-11-07T05:19:34.174Z,8.48
2022-11-07T05:22:19.218Z,8.36
2022-11-07T05:24:45.611Z,8.43
2022-11-07T05:27:19.654Z,8.44
2022-11-07T05:29:46.697Z,8.52
2022-11-07T05:32:14.345Z,8.59
2022-11-07T05:34:41.154Z,8.56
2022-11-07T05:37:11.994Z,8.46
2022-11-07T05:39:38.649Z,8.47
2022-11-07T05:42:05.190Z,8.36
2022-11-07T05:44:31.830Z,8.56
2022-11-07T05:46:58.720Z,8.33
2022-11-07T05:49:26.180Z,8.40
2022-11-07T05:51:53.492Z,8.42
2022-11-07T05:54:20.526Z,8.41
2022-11-07T05:56:47.028Z,8.44
2022-11-07T05:59:13.995Z,8.30
2022-11-07T06:01:40.913Z,8.24
2022-11-07T06:04:07.888Z,8.23
2022-11-07T06:06:34.754Z,8.18
2022-11-07T06:09:01.251Z,8.21
2022-11-07T06:11:27.744Z,8.36
2022-11-07T06:13:55.444Z,8.33
2022-11-07T06:16:22.032Z,8.28
2022-11-07T06:18:48.955Z,8.33
2022-11-07T06:21:16.833Z,8.34
2022-11-07T06:23:43.769Z,8.35
2022-11-07T06:26:10.616Z,8.30
2022-11-07T06:28:37.241Z,8.11
2022-11-07T06:31:04.565Z,8.10
2022-11-07T06:33:32.110Z,8.10
2022-11-07T06:36:09.981Z,8.18
2022-11-07T06:38:37.629Z,8.17
2022-11-07T06:41:13.541Z,8.20
2022-11-07T06:43:40.809Z,8.23
2022-11-07T06:46:11.706Z,8.24
2022-11-07T06:48:38.619Z,8.26
2022-11-07T06:51:06.642Z,8.34
2022-11-07T06:53:33.569Z,8.33
2022-11-07T06:56:01.429Z,8.29
2022-11-07T06:58:28.002Z,8.49
2022-11-07T07:00:58.598Z,8.23
2022-11-07T07:03:25.193Z,8.22
2022-11-07T07:05:51.830Z,8.22
2022-11-07T07:08:18.540Z,8.17
2022-11-07T07:10:46.024Z,8.12
2022-11-07T07:13:14.604Z,8.12
2022-11-07T07:15:50.827Z,8.09
2022-11-07T07:18:19.155Z,8.06
2022-11-07T07:20:46.627Z,8.11
2022-11-07T07:23:13.225Z,8.06
2022-11-07T07:25:39.746Z,8.13
2022-11-07T07:28:06.329Z,8.12
2022-11-07T07:30:33.019Z,8.23
2022-11-07T07:32:59.773Z,8.22
2022-11-07T07:35:26.373Z,8.30
2022-11-07T07:37:53.109Z,8.24
2022-11-07T07:40:20.372Z,8.34
2022-11-07T07:42:47.304Z,8.51
2022-11-07T07:45:15.637Z,8.60
2022-11-07T07:47:42.440Z,8.65
2022-11-07T07:50:11.579Z,8.65
2022-11-07T07:52:38.103Z,8.70
2022-11-07T07:55:07.876Z,8.64
2022-11-07T07:57:42.574Z,8.66
2022-11-07T08:00:09.716Z,8.79
2022-11-07T08:02:36.487Z,8.84
2022-11-07T08:05:03.341Z,8.94
2022-11-07T08:07:30.344Z,8.94
2022-11-07T08:09:59.373Z,8.97
2022-11-07T08:12:28.669Z,8.89
2022-11-07T08:14:55.179Z,8.91
2022-11-07T08:17:21.707Z,8.96
2022-11-07T08:19:48.264Z,9.01
2022-11-07T08:22:14.725Z,9.12
2022-11-07T08:24:43.279Z,9.22
2022-11-07T08:27:09.821Z,9.28
2022-11-07T08:29:36.408Z,9.37
2022-11-07T08:32:02.904Z,9.43
2022-11-07T08:34:29.395Z,9.56
2022-11-07T08:36:55.878Z,9.55
2022-11-07T08:39:22.473Z,9.62
2022-11-07T08:41:49.027Z,9.70
2022-11-07T08:44:15.598Z,9.76
2022-11-07T08:46:42.166Z,9.84
2022-11-07T08:49:08.809Z,9.91
2022-11-07T08:51:35.526Z,9.98
2022-11-07T08:54:02.535Z,10.04
2022-11-07T08:56:29.558Z,10.10
2022-11-07T08:58:56.124Z,10.20
2022-11-07T09:01:22.805Z,10.29
2022-11-07T09:03:56.500Z,10.37
2022-11-07T09:06:24.695Z,10.57
2022-11-07T09:08:51.215Z,10.57
2022-11-07T09:11:19.279Z,10.51
2022-11-07T09:13:49.119Z,10.66
2022-11-07T09:16:18.979Z,10.72
2022-11-07T09:18:47.238Z,10.73
2022-11-07T09:21:19.125Z,10.89
2022-11-07T09:23:49.279Z,11.03
2022-11-07T09:26:15.752Z,11.05
2022-11-07T09:28:45.651Z,11.08
2022-11-07T09:31:14.945Z,11.13
2022-11-07T09:33:41.458Z,11.12
2022-11-07T09:36:08.711Z,11.26
2022-11-07T09:38:36.355Z,11.27
2022-11-07T09:41:27.297Z,11.26
2022-11-07T09:44:06.801Z,11.28
2022-11-07T09:46:52.051Z,11.39
2022-11-07T09:49:38.428Z,11.56
2022-11-07T09:52:17.584Z,11.72
2022-11-07T09:54:55.098Z,11.81
2022-11-07T09:57:23.225Z,11.86
2022-11-07T10:00:00.519Z,11.95
2022-11-07T10:02:38.127Z,11.97
2022-11-07T10:05:05.888Z,11.96
2022-11-07T10:07:44.769Z,12.07
2022-11-07T10:10:11.416Z,12.11
2022-11-07T10:12:57.078Z,12.14
2022-11-07T10:15:33.175Z,12.44
2022-11-07T10:18:28.222Z,12.55
2022-11-07T10:24:32.754Z,12.88
2022-11-07T10:26:59.523Z,12.96
2022-11-07T10:29:44.354Z,13.03
2022-11-07T10:32:20.406Z,13.12
2022-11-07T10:34:54.657Z,13.12
2022-11-07T10:37:21.301Z,13.18
2022-11-07T10:39:47.839Z,13.39
2022-11-07T10:42:19.826Z,13.39
2022-11-07T10:44:46.660Z,13.53
2022-11-07T10:47:26.147Z,13.61
2022-11-07T10:50:13.562Z,13.57
2022-11-07T10:52:41.535Z,13.84
2022-11-07T10:55:16.087Z,13.92
2022-11-07T10:57:52.128Z,14.01
2022-11-07T11:00:28.639Z,14.18
2022-11-07T11:02:56.528Z,14.30
2022-11-07T11:05:43.642Z,14.42
2022-11-07T11:08:14.747Z,14.54
2022-11-07T11:10:42.207Z,14.68
2022-11-07T11:13:34.509Z,14.82
2022-11-07T11:16:16.136Z,14.80
2022-11-07T11:18:50.670Z,14.98
2022-11-07T11:21:17.362Z,15.20
2022-11-07T11:23:46.190Z,15.21
2022-11-07T11:26:31.742Z,15.29
2022-11-07T11:29:05.242Z,15.38
2022-11-07T11:31:39.895Z,15.33
2022-11-07T11:34:18.936Z,15.46
2022-11-07T11:36:55.222Z,15.55
2022-11-07T11:39:31.656Z,15.58
2022-11-07T11:41:59.481Z,15.75
2022-11-07T11:44:40.626Z,15.77
2022-11-07T11:47:34.632Z,15.87
2022-11-07T11:50:13.546Z,15.87
2022-11-07T11:52:40.266Z,15.90
2022-11-07T11:55:14.493Z,15.91
2022-11-07T11:57:40.945Z,16.07
2022-11-07T12:00:20.993Z,16.15
2022-11-07T12:03:23.672Z,16.25
2022-11-07T12:05:50.217Z,16.29
2022-11-07T12:08:25.653Z,16.41
2022-11-07T12:11:06.737Z,16.42
2022-11-07T12:13:54.983Z,16.40
2022-11-07T12:16:43.886Z,16.53
2022-11-07T12:19:37.122Z,16.51
2022-11-07T12:22:31.951Z,16.53
2022-11-07T12:25:04.538Z,16.59
2022-11-07T12:27:54.832Z,16.60
2022-11-07T12:30:33.053Z,16.66
2022-11-07T12:32:59.501Z,16.69
2022-11-07T12:35:43.673Z,16.69
2022-11-07T12:38:33.855Z,16.76
2022-11-07T12:41:06.248Z,16.71
2022-11-07T12:43:44.708Z,16.87
2022-11-07T12:46:20.145Z,16.88
2022-11-07T12:48:58.937Z,16.88
2022-11-07T12:51:50.036Z,16.95
2022-11-07T12:54:17.235Z,17.13
2022-11-07T12:56:45.942Z,17.14
2022-11-07T12:59:23.883Z,17.29
2022-11-07T13:02:02.706Z,17.31
2022-11-07T13:04:35.451Z,17.40
2022-11-07T13:07:08.551Z,17.55
2022-11-07T13:09:53.553Z,17.61
2022-11-07T13:12:38.297Z,17.64
2022-11-07T13:15:08.523Z,17.68
2022-11-07T13:17:41.170Z,17.69
2022-11-07T13:20:26.555Z,17.68
2022-11-07T13:23:01.846Z,17.64
2022-11-07T13:25:33.122Z,17.75
2022-11-07T13:28:06.226Z,17.79
2022-11-07T13:30:32.693Z,17.80
2022-11-07T13:33:00.547Z,17.82
2022-11-07T13:35:33.839Z,17.84
2022-11-07T13:38:08.753Z,17.90
2022-11-07T13:40:38.668Z,17.83
2022-11-07T13:43:10.814Z,17.84
2022-11-07T13:45:47.708Z,17.85
2022-11-07T13:48:33.631Z,17.80
2022-11-07T13:51:05.321Z,17.84
2022-11-07T13:53:42.179Z,17.80
2022-11-07T13:56:40.164Z,17.78
2022-11-07T13:59:13.573Z,17.82
2022-11-07T14:01:45.510Z,17.83
2022-11-07T14:04:14.464Z,17.80
2022-11-07T14:06:41.868Z,17.85
2022-11-07T14:09:09.160Z,17.86
2022-11-07T14:11:37.119Z,17.87
2022-11-07T14:14:03.801Z,17.74
2022-11-07T14:16:33.233Z,17.81
2022-11-07T14:19:03.387Z,17.73
2022-11-07T14:21:34.761Z,17.74
2022-11-07T14:24:02.059Z,17.71
2022-11-07T14:26:32.726Z,17.74
2022-11-07T14:29:01.105Z,17.60
2022-11-07T14:31:33.656Z,17.64
2022-11-07T14:34:03.697Z,17.61
2022-11-07T14:36:31.339Z,17.59
2022-11-07T14:39:07.906Z,17.60
2022-11-07T14:41:42.241Z,17.58
2022-11-07T14:44:15.632Z,17.61
2022-11-07T14:46:42.297Z,17.72
2022-11-07T14:49:28.671Z,17.70
2022-11-07T14:51:56.066Z,17.66
2022-11-07T14:54:28.774Z,17.73
2022-11-07T14:56:56.460Z,17.75
2022-11-07T14:59:26.350Z,17.77
2022-11-07T15:01:59.438Z,17.82
2022-11-07T15:04:35.218Z,17.79
2022-11-07T15:07:20.174Z,17.84
2022-11-07T15:09:46.794Z,17.80
2022-11-07T15:12:31.513Z,17.81
2022-11-07T15:15:02.564Z,17.86
2022-11-07T15:17:29.599Z,17.83
2022-11-07T15:20:00.365Z,17.88
2022-11-07T15:22:36.372Z,17.80
2022-11-07T15:25:03.483Z,17.75
2022-11-07T15:27:40.333Z,17.74
2022-11-07T15:30:24.636Z,17.68
2022-11-07T15:32:51.471Z,17.66
2022-11-07T15:35:43.040Z,17.52
2022-11-07T15:38:06.997Z,17.50
2022-11-07T15:40:33.665Z,17.43
2022-11-07T15:43:00.306Z,17.42
2022-11-07T15:45:27.062Z,17.31
2022-11-07T15:47:53.588Z,17.37
2022-11-07T15:50:25.838Z,17.40
2022-11-07T15:52:54.178Z,17.33
2022-11-07T15:55:22.812Z,17.22
2022-11-07T15:57:51.670Z,17.21
2022-11-07T16:00:21.345Z,17.14
2022-11-07T16:02:48.038Z,17.05
2022-11-07T16:05:16.008Z,16.98
2022-11-07T16:07:44.663Z,16.91
2022-11-07T16:10:25.067Z,16.97
2022-11-07T16:12:53.170Z,16.91
2022-11-07T16:15:22.797Z,16.88
2022-11-07T16:17:49.622Z,16.76
2022-11-07T16:20:21.614Z,16.77
2022-11-07T16:22:49.612Z,16.71
2022-11-07T16:25:22.073Z,16.64
2022-11-07T16:27:55.019Z,16.68
2022-11-07T16:30:22.545Z,16.61
2022-11-07T16:32:49.134Z,16.59
2022-11-07T16:35:16.077Z,16.56
2022-11-07T16:37:42.851Z,16.49
2022-11-07T16:40:14.355Z,16.40
2022-11-07T16:42:40.988Z,16.41
2022-11-07T16:45:08.460Z,16.33
2022-11-07T16:47:38.144Z,16.36
2022-11-07T16:50:06.020Z,16.41
2022-11-07T16:52:32.712Z,16.25
2022-11-07T16:55:00.202Z,16.22
2022-11-07T16:57:26.961Z,16.11
2022-11-07T16:59:53.531Z,16.14
2022-11-07T17:02:23.410Z,16.08
2022-11-07T17:04:51.818Z,16.06
2022-11-07T17:07:20.634Z,16.06
2022-11-07T17:09:47.505Z,15.93
2022-11-07T17:12:16.654Z,15.97
2022-11-07T17:14:43.483Z,15.95
2022-11-07T17:17:12.967Z,15.91
2022-11-07T17:19:39.814Z,15.90
2022-11-07T17:22:06.860Z,15.91
2022-11-07T17:24:33.437Z,15.92
2022-11-07T17:27:00.254Z,15.93
2022-11-07T17:29:26.976Z,15.80
2022-11-07T17:31:53.853Z,15.81
2022-11-07T17:34:21.494Z,15.81
2022-11-07T17:36:50.850Z,15.80
2022-11-07T17:39:20.625Z,15.70
2022-11-07T17:41:49.943Z,15.61
2022-11-07T17:44:17.526Z,15.67
2022-11-07T17:46:49.193Z,15.63
2022-11-07T17:49:17.901Z,15.57
2022-11-07T17:51:44.862Z,15.56
2022-11-07T17:54:13.167Z,15.59
2022-11-07T17:56:40.279Z,15.56
2022-11-07T17:59:15.908Z,15.63
2022-11-07T18:01:43.562Z,15.51
2022-11-07T18:04:12.629Z,15.57
2022-11-07T18:06:41.340Z,15.45
2022-11-07T18:09:14.909Z,15.40
2022-11-07T18:11:42.100Z,15.37
2022-11-07T18:14:11.944Z,15.37
2022-11-07T18:16:38.936Z,15.33
2022-11-07T18:19:06.047Z,15.36
2022-11-07T18:21:33.365Z,15.37
2022-11-07T18:23:59.842Z,15.31
2022-11-07T18:26:31.024Z,15.24
2022-11-07T18:29:04.537Z,15.24
2022-11-07T18:31:31.069Z,15.22
2022-11-07T18:33:59.928Z,15.18
2022-11-07T18:36:27.285Z,15.09
2022-11-07T18:38:53.828Z,15.16
2022-11-07T18:41:23.515Z,15.13
2022-11-07T18:43:50.666Z,15.06
2022-11-07T18:46:22.030Z,15.04
2022-11-07T18:48:49.007Z,15.07
2022-11-07T18:51:18.211Z,15.07
2022-11-07T18:53:44.886Z,15.01
2022-11-07T18:56:13.103Z,14.92
2022-11-07T18:58:41.442Z,14.95
2022-11-07T19:01:13.087Z,14.99
2022-11-07T19:03:41.012Z,15.00
2022-11-07T19:06:09.464Z,14.94
2022-11-07T19:08:39.439Z,14.87
2022-11-07T19:11:11.198Z,14.81
2022-11-07T19:13:40.252Z,14.79
2022-11-07T19:16:09.298Z,14.85
2022-11-07T19:18:36.203Z,14.84
2022-11-07T19:21:06.365Z,14.84
2022-11-07T19:23:36.392Z,14.79
2022-11-07T19:26:04.195Z,14.81
2022-11-07T19:28:30.750Z,14.77
2022-11-07T19:30:57.426Z,14.80
2022-11-07T19:33:23.931Z,14.75
2022-11-07T19:36:01.612Z,14.75
2022-11-07T19:38:30.470Z,14.73
2022-11-07T19:40:57.826Z,14.70
2022-11-07T19:43:24.381Z,14.83
2022-11-07T19:45:51.033Z,14.81
2022-11-07T19:48:18.977Z,14.86
2022-11-07T19:50:45.586Z,14.81
2022-11-07T19:53:12.438Z,14.83
2022-11-07T19:55:39.214Z,14.87
2022-11-07T19:58:05.946Z,14.75
2022-11-07T20:00:32.788Z,14.83
2022-11-07T20:02:59.540Z,14.84
2022-11-07T20:05:27.067Z,14.85
2022-11-07T20:07:58.054Z,14.93
2022-11-07T20:10:27.584Z,14.93
2022-11-07T20:12:55.586Z,14.91
2022-11-07T20:15:22.398Z,14.95
2022-11-07T20:17:49.030Z,15.01
2022-11-07T20:20:15.676Z,15.02
2022-11-07T20:22:47.386Z,15.02
2022-11-07T20:25:14.217Z,15.00
2022-11-07T20:27:40.970Z,15.08
2022-11-07T20:30:08.441Z,15.09
2022-11-07T20:32:36.593Z,15.02
2022-11-07T20:35:03.818Z,15.10
2022-11-07T20:37:30.380Z,15.08
2022-11-07T20:39:56.855Z,15.11
2022-11-07T20:42:23.416Z,15.06
2022-11-07T20:44:51.099Z,15.08
2022-11-07T20:47:17.982Z,15.15
2022-11-07T20:49:44.623Z,15.15
2022-11-07T20:52:11.391Z,15.16
2022-11-07T20:54:38.017Z,15.17
2022-11-07T20:57:04.689Z,15.13
2022-11-07T20:59:31.986Z,15.16
2022-11-07T21:02:03.147Z,15.13
2022-11-07T21:04:44.402Z,15.12
2022-11-07T21:07:19.800Z,15.17
2022-11-07T21:09:46.997Z,15.22
2022-11-07T21:12:13.761Z,15.18
2022-11-07T21:14:42.619Z,15.22
2022-11-07T21:17:09.875Z,15.26
2022-11-07T21:19:36.581Z,15.22
2022-11-07T21:22:04.089Z,15.16
2022-11-07T21:24:31.033Z,15.20
2022-11-07T21:26:57.938Z,15.18
2022-11-07T21:29:29.327Z,15.20
2022-11-07T21:31:57.023Z,15.18
2022-11-07T21:34:24.236Z,15.15
2022-11-07T21:36:50.786Z,15.18
2022-11-07T21:39:17.956Z,15.20
2022-11-07T21:41:45.269Z,15.19
2022-11-07T21:44:12.467Z,15.20
2022-11-07T21:46:39.224Z,15.23
2022-11-07T21:49:06.435Z,15.18
2022-11-07T21:51:36.889Z,15.20
2022-11-07T21:54:05.103Z,15.15
2022-11-07T21:56:34.524Z,15.23
2022-11-07T21:59:03.965Z,15.15
2022-11-07T22:01:35.163Z,15.16
2022-11-07T22:04:08.752Z,15.21
2022-11-07T22:06:37.911Z,15.11
2022-11-07T22:09:06.199Z,15.09
2022-11-07T22:11:33.140Z,15.17
2022-11-07T22:13:59.617Z,15.18
2022-11-07T22:16:26.153Z,15.12
2022-11-07T22:18:52.756Z,15.12
2022-11-07T22:21:21.641Z,15.12
2022-11-07T22:23:48.756Z,15.02
2022-11-07T22:26:18.506Z,14.90
2022-11-07T22:28:46.456Z,14.95
2022-11-07T22:31:25.110Z,14.95
2022-11-07T22:33:53.446Z,15.01
2022-11-07T22:36:20.785Z,14.95
2022-11-07T22:38:47.566Z,14.92
2022-11-07T22:41:17.628Z,14.89
2022-11-07T22:43:44.631Z,14.84
2022-11-07T22:46:14.026Z,14.92
2022-11-07T22:48:40.885Z,14.83
2022-11-07T22:51:10.635Z,14.79
2022-11-07T22:53:38.073Z,14.86
2022-11-07T22:56:17.099Z,14.71
2022-11-07T22:58:45.223Z,14.73
2022-11-07T23:01:20.650Z,14.69
2022-11-07T23:03:48.832Z,14.65
2022-11-07T23:06:17.076Z,14.61
2022-11-07T23:08:44.442Z,14.53
2022-11-07T23:11:44.725Z,14.66
2022-11-07T23:14:04.321Z,14.74
2022-11-07T23:16:38.750Z,14.68
2022-11-07T23:19:06.638Z,14.70
2022-11-07T23:21:34.548Z,14.67
2022-11-07T23:24:01.379Z,14.71
2022-11-07T23:26:35.850Z,14.71
2022-11-07T23:29:07.287Z,14.77
2022-11-07T23:31:36.986Z,14.70
2022-11-07T23:34:03.940Z,14.72
2022-11-07T23:36:30.398Z,14.63
2022-11-07T23:38:56.896Z,14.76
2022-11-07T23:41:23.401Z,14.69
2022-11-07T23:43:52.755Z,14.67
2022-11-07T23:46:37.869Z,14.67
2022-11-07T23:49:22.519Z,14.64
2022-11-07T23:51:49.058Z,14.76
2022-11-07T23:54:34.054Z,14.66
2022-11-07T23:57:00.885Z,14.76
2022-11-07T23:59:45.657Z,14.64
